Penobscot, ME (04476)

7:54 AM EDT on September 01, 2015 (GMT -0400)
RainWise MKIII by Pierces Pond | | Change Station
CLOSE
Current Station
Personal Weather Station
Location: Penobscot, ME
Elevation: 89 ft
Nearby Weather Stations

Elev 89 ft 44.48 °N, 68.72 °W | Updated 1 second ago

Clear
Clear
62.4 °F
Feels Like 62.4 °F
N
7.0
Wind Variable Wind from NE
Gusts 9.0 mph

Today
High -- | Low -- °F
--% Chance of Precip.
Yesterday
High -- | Low -- °F
Precip. -- in
5:57 AM 7:11 PM
Waning Gibbous, 89% visible
Pressure 30.00 in
Visibility 10.0 miles
Clouds Few 18000 ft
Scattered Clouds 25000 ft
Dew Point 62 °F
Humidity 100%
Rainfall 0.00 in
Snow Depth Not available.
UV 0 out of 12
Pollen 7.50 out of 12
Air Quality Not available.
Flu Activity Not available.
METAR KBGR 011053Z 24003KT 10SM FEW180 SCT250 14/12 A3001 RMK AO2 SLP159 T01440122
Pressure 30.00 in
Visibility 10.0 miles
Clouds Few 18000 ft
Scattered Clouds 25000 ft
Dew Point 62 °F
Humidity 100%
Rainfall 0.00 in
Snow Depth Not available.
UV 0 out of 12
Pollen 7.50 out of 12
Air Quality Not available.
Flu Activity Not available.
METAR KBGR 011053Z 24003KT 10SM FEW180 SCT250 14/12 A3001 RMK AO2 SLP159 T01440122

10-Day Weather Forecast

×

Almanac

Astronomy

Sep. 01, 2015 Rise Set
Actual Time
Civil Twilight
Nautical Twilight
Astronomical Twilight
Moon
Length of Visible Light
Length of Day
Tomorrow will be .
, % of the Moon is Illuminated

Today's Extremes

State Highs State Lows

Community

WunderPhotos

Upload Photos

1,851,506 photos uploaded!

WunderBlogs® & News

Nearby

Air Quality

  Air Quality AQ Index Pollutant
Not available.

Snow Depth

Station Depth Elevation

Earthquake Activity

City Distance Mag. Time & Date
Minimum magnitude displayed is 2.5.

Coastal Water Temperatures

Place Temperature

Stations

Nearby Weather Stations

Station Location Temp. Windchill Dew Point Humidity Wind Precip. Elev Updated Type